Time;durP1;ratioP1;P1;durP2;ratioP2;P2;SDS_P1;SDS_P2;PMS_P1;PMS_P2;Temp;Humidity;BMP_temperature;BMP_pressure;BME280_temperature;BME280_humidity;BME280_pressure;Samples;Min_cycle;Max_cycle;Signal;HPM_P1;HPM_P2
2022/09/05 00:00:07;;;;;;;4.15;3.00;;;;;24.70;100862.00;;;;2096602;28;20215;-55
2022/09/05 00:01:14;;;;;;;6.13;3.22;;;;;24.80;100862.00;;;;2100932;28;20216;-56
2022/09/05 00:02:32;;;;;;;3.67;3.13;;;;;24.80;100860.00;;;;2087436;28;20259;-55
2022/09/05 00:04:12;;;;;;;3.97;3.30;;;;;24.90;100854.00;;;;2084356;28;20689;-56
2022/09/05 00:05:19;;;;;;;5.97;3.20;;;;;24.90;100858.00;;;;2069610;28;20220;-56
2022/09/05 00:06:19;;;;;;;12.85;3.00;;;;;24.90;100857.00;;;;2094158;28;20219;-57
2022/09/05 00:07:34;;;;;;;5.73;2.60;;;;;24.90;100856.00;;;;2094492;28;20210;-54
2022/09/05 00:09:01;;;;;;;7.75;3.40;;;;;24.80;100860.00;;;;2095549;28;20211;-53
2022/09/05 00:10:13;;;;;;;6.30;2.83;;;;;24.80;100854.00;;;;2095318;28;20283;-56
2022/09/05 00:11:18;;;;;;;9.85;2.65;;;;;24.80;100820.00;;;;2094019;28;20234;-54
2022/09/05 00:12:18;;;;;;;9.23;3.28;;;;;24.70;100853.00;;;;2089247;28;21220;-56
2022/09/05 00:13:22;;;;;;;6.37;3.50;;;;;24.70;100845.00;;;;2078706;28;20307;-55
2022/09/05 00:14:28;;;;;;;4.70;3.10;;;;;24.70;100844.00;;;;2086405;28;20709;-56
2022/09/05 00:15:33;;;;;;;4.28;2.80;;;;;24.80;100848.00;;;;2087129;28;20274;-56
2022/09/05 00:17:01;;;;;;;4.95;2.63;;;;;24.70;100860.00;;;;2086537;28;20247;-55
2022/09/05 00:18:22;;;;;;;5.18;3.28;;;;;24.70;100856.00;;;;2085366;28;20299;-54
2022/09/05 00:19:50;;;;;;;7.20;2.80;;;;;24.70;100858.00;;;;2094937;28;20208;-56
2022/09/05 00:20:59;;;;;;;3.67;3.38;;;;;24.80;100855.00;;;;2095447;28;21057;-55
2022/09/05 00:22:12;;;;;;;2.97;2.67;;;;;24.80;100857.00;;;;2086059;28;20213;-54
2022/09/05 00:23:50;;;;;;;4.68;2.92;;;;;24.80;100849.00;;;;2089047;28;20768;-57
2022/09/05 00:25:07;;;;;;;5.15;2.95;;;;;24.70;100858.00;;;;2081619;28;20259;-56
2022/09/05 00:26:27;;;;;;;4.70;2.70;;;;;24.70;100855.00;;;;2094739;28;20712;-56
2022/09/05 00:27:38;;;;;;;3.33;2.50;;;;;24.80;100855.00;;;;2080976;28;20236;-54
2022/09/05 00:29:25;;;;;;;5.28;2.70;;;;;24.80;100851.00;;;;2078698;28;20732;-57
2022/09/05 00:30:25;;;;;;;4.78;3.20;;;;;24.80;100857.00;;;;2073485;28;20226;-54
2022/09/05 00:31:58;;;;;;;3.50;2.70;;;;;24.70;100856.00;;;;2083312;28;20243;-53
2022/09/05 00:33:17;;;;;;;3.95;2.60;;;;;24.80;100844.00;;;;2087514;28;20200;-53
2022/09/05 00:34:17;;;;;;;3.60;2.95;;;;;24.70;100848.00;;;;2089022;28;20516;-55
2022/09/05 00:35:42;;;;;;;6.47;3.00;;;;;24.80;100848.00;;;;2095443;28;20582;-55
2022/09/05 00:36:46;;;;;;;3.78;3.10;;;;;24.80;100853.00;;;;2095163;28;20399;-54
2022/09/05 00:37:47;;;;;;;5.35;3.42;;;;;24.80;100851.00;;;;2080530;28;20216;-53
2022/09/05 00:39:22;;;;;;;4.35;2.78;;;;;24.80;100849.00;;;;2078728;28;20242;-55
2022/09/05 00:40:36;;;;;;;5.65;3.17;;;;;24.80;100850.00;;;;2084493;28;20216;-55
2022/09/05 00:41:37;;;;;;;3.22;2.80;;;;;24.70;100856.00;;;;2078279;28;20217;-54
2022/09/05 00:42:37;;;;;;;5.03;2.73;;;;;24.80;100844.00;;;;2087471;28;20657;-55
2022/09/05 00:43:41;;;;;;;4.07;2.70;;;;;24.80;100838.00;;;;2078613;28;20275;-54
2022/09/05 00:44:58;;;;;;;4.18;2.95;;;;;24.80;100835.00;;;;2079506;28;20221;-55
2022/09/05 00:46:12;;;;;;;3.22;2.55;;;;;24.70;100845.00;;;;2078923;28;20209;-55
2022/09/05 00:47:44;;;;;;;4.47;3.20;;;;;24.80;100839.00;;;;2089466;28;20222;-55
2022/09/05 00:48:51;;;;;;;2.78;2.58;;;;;24.70;100848.00;;;;2089916;28;20282;-54
2022/09/05 00:50:04;;;;;;;6.43;2.75;;;;;24.80;100846.00;;;;2095196;28;20204;-55
2022/09/05 00:51:27;;;;;;;3.25;2.95;;;;;24.80;100847.00;;;;2095189;28;20212;-53
2022/09/05 00:52:33;;;;;;;3.38;2.50;;;;;24.70;100839.00;;;;2091241;28;20223;-55
2022/09/05 00:53:48;;;;;;;3.63;2.53;;;;;24.80;100839.00;;;;2089557;28;20220;-56
2022/09/05 00:55:01;;;;;;;3.70;2.50;;;;;24.80;100837.00;;;;2088277;28;20220;-56
2022/09/05 00:56:30;;;;;;;3.25;2.72;;;;;24.70;100848.00;;;;2088602;28;20212;-56
2022/09/05 00:57:53;;;;;;;3.90;2.63;;;;;24.70;100848.00;;;;2093997;28;20208;-56
2022/09/05 00:59:21;;;;;;;3.08;2.78;;;;;24.80;100847.00;;;;2094892;28;20454;-54
2022/09/05 01:00:36;;;;;;;2.30;2.10;;;;;24.70;100847.00;;;;2090975;28;20204;-55
2022/09/05 01:01:57;;;;;;;2.83;2.60;;;;;24.80;100850.00;;;;2095344;28;21095;-55
2022/09/05 01:03:19;;;;;;;3.08;2.78;;;;;24.80;100845.00;;;;2094784;28;20219;-55
2022/09/05 01:04:49;;;;;;;2.25;2.05;;;;;24.70;100844.00;;;;2089186;28;20875;-55
2022/09/05 01:06:01;;;;;;;3.30;2.55;;;;;24.70;100847.00;;;;2088290;28;20214;-55
2022/09/05 01:07:13;;;;;;;2.83;2.55;;;;;24.70;100851.00;;;;2094837;28;20223;-55
2022/09/05 01:08:38;;;;;;;2.83;2.40;;;;;24.70;100838.00;;;;2095186;28;20652;-54
2022/09/05 01:10:02;;;;;;;4.63;2.45;;;;;24.70;100845.00;;;;2095701;28;20575;-56
2022/09/05 01:11:10;;;;;;;2.78;2.58;;;;;24.70;100844.00;;;;2087419;28;20216;-56
2022/09/05 01:12:25;;;;;;;3.10;2.55;;;;;24.70;100836.00;;;;2078766;28;20221;-56
2022/09/05 01:13:35;;;;;;;2.38;2.15;;;;;24.70;100839.00;;;;2085651;28;20575;-54
2022/09/05 01:14:53;;;;;;;3.63;2.70;;;;;24.70;100832.00;;;;2095770;28;20658;-55
2022/09/05 01:16:03;;;;;;;2.80;2.40;;;;;24.70;100844.00;;;;2094703;28;20457;-54
2022/09/05 01:17:09;;;;;;;3.47;2.30;;;;;24.70;100703.00;;;;2087556;28;20216;-54
2022/09/05 01:18:33;;;;;;;3.45;2.45;;;;;24.70;100844.00;;;;2094164;28;20299;-55
2022/09/05 01:20:00;;;;;;;2.67;2.47;;;;;24.70;100847.00;;;;2094175;28;20219;-55
2022/09/05 01:21:04;;;;;;;2.78;2.35;;;;;24.70;100851.00;;;;2089034;28;20204;-55
2022/09/05 01:22:07;;;;;;;2.65;2.40;;;;;24.70;100844.00;;;;2087409;28;20567;-55
2022/09/05 01:23:30;;;;;;;2.50;2.30;;;;;24.70;100848.00;;;;2093899;28;20254;-56
2022/09/05 01:24:41;;;;;;;2.60;2.40;;;;;24.70;100848.00;;;;2094854;28;20235;-55
2022/09/05 01:25:59;;;;;;;2.70;2.50;;;;;24.70;100846.00;;;;2077527;28;20674;-55
2022/09/05 01:27:31;;;;;;;3.13;2.50;;;;;24.70;100848.00;;;;2085971;28;20648;-55
2022/09/05 01:28:37;;;;;;;3.65;2.40;;;;;24.70;100852.00;;;;2091114;28;20299;-54
2022/09/05 01:29:49;;;;;;;2.33;2.13;;;;;24.70;100848.00;;;;2086684;28;20661;-56
2022/09/05 01:30:55;;;;;;;3.35;2.42;;;;;24.20;100843.00;;;;2077926;28;20218;-56
2022/09/05 01:32:19;;;;;;;3.17;2.88;;;;;24.70;100848.00;;;;2082739;28;20213;-54
2022/09/05 01:33:35;;;;;;;3.08;2.80;;;;;24.70;100847.00;;;;2096966;28;20212;-56
2022/09/05 01:34:36;;;;;;;2.55;2.35;;;;;24.70;100853.00;;;;2086424;28;20289;-55
2022/09/05 01:35:59;;;;;;;2.30;2.10;;;;;24.70;100847.00;;;;2087087;28;20232;-55
2022/09/05 01:37:18;;;;;;;3.35;2.42;;;;;24.70;100864.00;;;;2092530;28;20212;-54
2022/09/05 01:38:18;;;;;;;3.10;2.80;;;;;24.70;100843.00;;;;2095027;28;20211;-55
2022/09/05 01:39:48;;;;;;;3.07;2.27;;;;;24.70;100850.00;;;;2095098;28;20477;-54
2022/09/05 01:41:20;;;;;;;2.50;2.30;;;;;24.70;100857.00;;;;2087173;28;20271;-54
2022/09/05 01:42:37;;;;;;;2.85;2.33;;;;;24.70;100854.00;;;;2087312;28;20342;-55
2022/09/05 01:44:11;;;;;;;2.80;2.60;;;;;24.70;100850.00;;;;2091321;28;20228;-54
2022/09/05 01:45:23;;;;;;;2.30;2.10;;;;;24.70;100857.00;;;;2095592;28;20213;-54
2022/09/05 01:46:46;;;;;;;2.55;2.35;;;;;24.70;100860.00;;;;2087622;28;20215;-53
2022/09/05 01:48:04;;;;;;;2.78;2.20;;;;;24.70;100853.00;;;;2084445;28;20215;-53
2022/09/05 01:49:28;;;;;;;2.50;2.30;;;;;24.70;100847.00;;;;2090801;28;20589;-55
2022/09/05 01:50:47;;;;;;;2.13;1.90;;;;;24.70;100844.00;;;;2088745;28;20312;-55
2022/09/05 01:52:23;;;;;;;2.50;2.30;;;;;24.70;100846.00;;;;2081022;28;20717;-55
2022/09/05 01:54:05;;;;;;;2.40;2.17;;;;;24.70;100845.00;;;;2092683;28;20208;-53
2022/09/05 01:55:08;;;;;;;2.78;2.50;;;;;24.70;100849.00;;;;2076183;28;20567;-54
2022/09/05 01:56:46;;;;;;;2.72;2.53;;;;;24.70;100843.00;;;;2085850;28;20356;-54
2022/09/05 01:57:59;;;;;;;2.67;2.38;;;;;24.70;100845.00;;;;2093064;28;20230;-55
2022/09/05 01:58:59;;;;;;;2.67;2.47;;;;;24.70;100831.00;;;;2092103;28;20274;-54
2022/09/05 02:00:11;;;;;;;2.50;2.30;;;;;24.70;100820.00;;;;2089525;28;20239;-54
2022/09/05 02:01:27;;;;;;;2.30;2.17;;;;;24.70;100824.00;;;;2081512;28;20217;-55
2022/09/05 02:02:35;;;;;;;2.53;2.33;;;;;24.70;100848.00;;;;2079794;28;20251;-56
2022/09/05 02:03:41;;;;;;;2.55;2.33;;;;;24.70;100844.00;;;;2083982;28;20243;-55
2022/09/05 02:04:56;;;;;;;2.38;2.17;;;;;24.70;100838.00;;;;2085857;28;20220;-53
2022/09/05 02:06:25;;;;;;;2.60;2.40;;;;;24.60;100839.00;;;;2086646;28;20923;-54
2022/09/05 02:07:32;;;;;;;2.47;2.28;;;;;24.70;100828.00;;;;2089301;28;20232;-56
2022/09/05 02:08:42;;;;;;;2.40;2.20;;;;;24.70;100834.00;;;;2086709;28;20304;-53
2022/09/05 02:09:42;;;;;;;2.60;2.40;;;;;24.70;100832.00;;;;2087161;28;20840;-53
2022/09/05 02:11:08;;;;;;;2.53;2.30;;;;;24.70;100826.00;;;;2093900;28;20311;-55
2022/09/05 02:12:14;;;;;;;2.60;2.40;;;;;24.70;100838.00;;;;2087637;28;20247;-56
2022/09/05 02:13:32;;;;;;;2.63;2.38;;;;;24.70;100836.00;;;;2093924;28;20771;-55
2022/09/05 02:14:40;;;;;;;5.07;2.63;;;;;24.70;100843.00;;;;2094158;28;20223;-54
2022/09/05 02:16:00;;;;;;;2.83;2.50;;;;;24.70;100849.00;;;;2094181;28;20251;-55
2022/09/05 02:17:20;;;;;;;3.03;2.47;;;;;24.70;100848.00;;;;2088235;28;20631;-55
2022/09/05 02:18:44;;;;;;;2.25;2.05;;;;;24.70;100853.00;;;;2085998;28;20685;-55
2022/09/05 02:20:34;;;;;;;2.38;2.17;;;;;24.70;100843.00;;;;2083968;28;20219;-53
2022/09/05 02:21:39;;;;;;;2.50;2.30;;;;;24.70;100843.00;;;;2083661;28;20212;-55
2022/09/05 02:22:45;;;;;;;2.85;2.55;;;;;24.70;100839.00;;;;2095552;28;20319;-53
2022/09/05 02:23:51;;;;;;;2.60;2.40;;;;;24.70;100837.00;;;;2094693;28;20270;-55
2022/09/05 02:25:06;;;;;;;2.40;2.20;;;;;24.70;100843.00;;;;2087181;28;20479;-54
2022/09/05 02:26:24;;;;;;;2.85;2.45;;;;;24.70;100845.00;;;;2077831;28;20248;-55
2022/09/05 02:27:39;;;;;;;2.63;2.42;;;;;24.60;100839.00;;;;2079999;28;20235;-56
2022/09/05 02:28:56;;;;;;;3.00;2.30;;;;;24.70;100866.00;;;;2087669;28;20220;-54
2022/09/05 02:30:08;;;;;;;2.50;2.30;;;;;24.60;100833.00;;;;2083915;28;20217;-56
2022/09/05 02:31:42;;;;;;;2.40;2.20;;;;;24.60;100834.00;;;;2079003;28;20712;-56
2022/09/05 02:33:34;;;;;;;2.90;2.60;;;;;24.60;100844.00;;;;2090691;28;20220;-53
2022/09/05 02:34:57;;;;;;;2.20;2.00;;;;;24.60;100837.00;;;;2076721;28;20236;-55
2022/09/05 02:36:13;;;;;;;3.97;2.70;;;;;24.60;100838.00;;;;2082571;28;20216;-55
2022/09/05 02:37:29;;;;;;;3.13;2.70;;;;;24.70;100832.00;;;;2084991;28;20235;-57
2022/09/05 02:38:46;;;;;;;2.22;2.05;;;;;24.60;100831.00;;;;2076282;28;20213;-55
2022/09/05 02:39:51;;;;;;;2.40;2.20;;;;;24.60;100837.00;;;;2091199;28;20220;-54
2022/09/05 02:40:56;;;;;;;2.45;2.25;;;;;24.60;100829.00;;;;2093996;28;20239;-55
2022/09/05 02:42:03;;;;;;;2.60;2.30;;;;;24.60;100832.00;;;;2092894;28;20239;-53
2022/09/05 02:43:12;;;;;;;2.63;2.42;;;;;24.60;100846.00;;;;2085935;28;20319;-53
2022/09/05 02:44:40;;;;;;;3.08;2.40;;;;;24.60;100833.00;;;;2094364;28;20235;-53
2022/09/05 02:45:53;;;;;;;2.97;2.78;;;;;24.60;100833.00;;;;2090436;28;20212;-54
2022/09/05 02:47:21;;;;;;;2.63;2.42;;;;;24.60;100832.00;;;;2085807;28;20236;-53
2022/09/05 02:48:30;;;;;;;2.67;2.47;;;;;24.60;100832.00;;;;2093506;28;20212;-54
2022/09/05 02:49:57;;;;;;;2.70;2.50;;;;;24.60;100830.00;;;;2093944;28;20227;-53
2022/09/05 02:51:17;;;;;;;2.60;2.40;;;;;24.60;100843.00;;;;2093742;28;20212;-54
2022/09/05 02:52:22;;;;;;;2.65;2.45;;;;;24.60;100825.00;;;;2091300;28;20208;-54
2022/09/05 02:53:23;;;;;;;2.47;2.28;;;;;24.60;100831.00;;;;2086512;28;20736;-53
2022/09/05 02:54:27;;;;;;;2.73;2.50;;;;;24.60;100832.00;;;;2071075;28;20280;-54
2022/09/05 02:55:56;;;;;;;2.45;2.25;;;;;24.60;100831.00;;;;2078727;28;20300;-54
2022/09/05 02:57:15;;;;;;;2.90;2.50;;;;;24.60;100846.00;;;;2082021;28;20311;-53
2022/09/05 02:58:31;;;;;;;2.58;2.38;;;;;24.60;100838.00;;;;2085690;28;20214;-54
2022/09/05 02:59:37;;;;;;;2.50;2.30;;;;;24.60;100830.00;;;;2081666;28;20303;-53
2022/09/05 03:00:50;;;;;;;2.65;2.25;;;;;24.60;100831.00;;;;2087391;28;20221;-55
2022/09/05 03:02:03;;;;;;;2.70;2.50;;;;;24.60;100820.00;;;;2086150;28;20251;-54
2022/09/05 03:03:14;;;;;;;2.58;2.38;;;;;24.60;100831.00;;;;2088428;28;20757;-54
2022/09/05 03:04:32;;;;;;;2.47;2.27;;;;;24.60;100835.00;;;;2094120;28;20707;-53
2022/09/05 03:05:56;;;;;;;3.28;2.38;;;;;24.60;100837.00;;;;2079093;28;20526;-55
2022/09/05 03:07:36;;;;;;;2.10;2.00;;;;;24.30;100830.00;;;;2085147;28;20751;-55
2022/09/05 03:08:42;;;;;;;2.80;2.60;;;;;24.60;100837.00;;;;2084971;28;20265;-55
2022/09/05 03:10:02;;;;;;;3.23;2.70;;;;;24.60;100832.00;;;;2078674;28;20333;-55
2022/09/05 03:11:14;;;;;;;2.65;2.40;;;;;24.60;100844.00;;;;2091904;28;20435;-55
2022/09/05 03:12:17;;;;;;;2.72;2.53;;;;;24.60;100831.00;;;;2094827;28;20236;-55
2022/09/05 03:13:38;;;;;;;2.30;2.20;;;;;24.60;100834.00;;;;2094957;28;20687;-55
2022/09/05 03:15:06;;;;;;;2.63;2.38;;;;;24.60;100833.00;;;;2092894;28;20442;-53
2022/09/05 03:16:16;;;;;;;2.80;2.60;;;;;24.60;100828.00;;;;2093442;28;20299;-53
2022/09/05 03:17:31;;;;;;;2.50;2.30;;;;;24.60;100822.00;;;;2094266;28;20223;-56
2022/09/05 03:18:52;;;;;;;2.73;2.53;;;;;24.60;100835.00;;;;2094349;28;20511;-56
2022/09/05 03:19:52;;;;;;;2.70;2.50;;;;;24.60;100827.00;;;;2088680;28;20450;-54
2022/09/05 03:21:07;;;;;;;2.60;2.40;;;;;24.60;100854.00;;;;2094384;28;20530;-54
2022/09/05 03:22:32;;;;;;;2.67;2.47;;;;;24.60;100836.00;;;;2094394;28;20284;-56
2022/09/05 03:23:35;;;;;;;2.90;2.60;;;;;24.60;100829.00;;;;2094426;28;20845;-55
2022/09/05 03:24:51;;;;;;;3.05;2.50;;;;;24.50;100834.00;;;;2095072;28;20694;-56
2022/09/05 03:26:04;;;;;;;3.38;3.08;;;;;24.60;100836.00;;;;2094015;28;20204;-54
2022/09/05 03:27:10;;;;;;;2.30;2.20;;;;;24.60;100829.00;;;;2079598;28;20233;-56
2022/09/05 03:28:48;;;;;;;2.90;2.70;;;;;24.60;100822.00;;;;2086900;28;20209;-54
2022/09/05 03:30:14;;;;;;;2.80;2.60;;;;;24.60;100824.00;;;;2095092;28;20405;-56
2022/09/05 03:31:40;;;;;;;2.80;2.60;;;;;24.60;100823.00;;;;2094100;28;20450;-56
2022/09/05 03:33:12;;;;;;;2.20;2.10;;;;;24.60;100825.00;;;;2089368;28;20782;-53
2022/09/05 03:34:23;;;;;;;2.90;2.70;;;;;24.60;100829.00;;;;2078367;28;20222;-53
2022/09/05 03:35:32;;;;;;;2.93;2.73;;;;;24.60;100831.00;;;;2094505;28;20672;-54
2022/09/05 03:36:54;;;;;;;3.05;2.70;;;;;24.60;100830.00;;;;2094465;28;20447;-54
2022/09/05 03:38:24;;;;;;;2.60;2.40;;;;;24.50;100835.00;;;;2094017;28;20213;-55
2022/09/05 03:39:40;;;;;;;2.63;2.42;;;;;24.60;100832.00;;;;2093826;28;20216;-53
2022/09/05 03:41:00;;;;;;;2.67;2.47;;;;;24.60;100834.00;;;;2094550;28;20908;-56
2022/09/05 03:42:22;;;;;;;2.90;2.60;;;;;24.60;100823.00;;;;2095568;28;20696;-55
2022/09/05 03:43:35;;;;;;;2.40;2.20;;;;;24.60;100824.00;;;;2096223;28;20208;-55
2022/09/05 03:44:48;;;;;;;2.20;2.10;;;;;24.60;100826.00;;;;2096299;28;20811;-54
2022/09/05 03:46:14;;;;;;;3.10;2.80;;;;;24.60;100830.00;;;;2092951;28;20704;-54
2022/09/05 03:47:29;;;;;;;2.85;2.65;;;;;24.60;100833.00;;;;2067966;28;20267;-55
2022/09/05 03:48:57;;;;;;;2.85;2.65;;;;;24.60;100861.00;;;;2086488;28;21148;-55
2022/09/05 03:50:20;;;;;;;2.60;2.40;;;;;24.50;100839.00;;;;2096409;28;20212;-53
2022/09/05 03:51:42;;;;;;;2.80;2.28;;;;;24.60;100839.00;;;;2095448;28;20220;-55
2022/09/05 03:52:57;;;;;;;3.03;2.72;;;;;24.60;100844.00;;;;2089942;28;20207;-60
2022/09/05 03:54:35;;;;;;;2.70;2.40;;;;;24.60;100837.00;;;;2096013;28;20745;-53
2022/09/05 03:55:59;;;;;;;2.70;2.50;;;;;24.60;100830.00;;;;2096193;28;20208;-54
2022/09/05 03:57:06;;;;;;;2.92;2.72;;;;;24.60;100834.00;;;;2093896;28;20837;-52
2022/09/05 03:58:33;;;;;;;2.60;2.40;;;;;24.60;100836.00;;;;2086741;28;20224;-54
2022/09/05 03:59:58;;;;;;;2.90;2.70;;;;;24.60;100835.00;;;;2092214;28;20216;-54
2022/09/05 04:01:05;;;;;;;2.60;2.40;;;;;24.60;100836.00;;;;2095495;28;20208;-54
2022/09/05 04:02:06;;;;;;;4.38;2.70;;;;;24.60;100833.00;;;;2088236;28;20213;-55
2022/09/05 04:03:23;;;;;;;2.33;2.13;;;;;24.60;100831.00;;;;2079792;28;20641;-56
2022/09/05 04:04:34;;;;;;;2.70;2.50;;;;;24.60;100844.00;;;;2075092;28;20445;-54
2022/09/05 04:05:44;;;;;;;3.05;2.75;;;;;24.60;100834.00;;;;2082489;28;20221;-56
2022/09/05 04:06:49;;;;;;;2.83;2.63;;;;;24.60;100858.00;;;;2088368;28;20251;-61
2022/09/05 04:08:00;;;;;;;2.42;2.25;;;;;24.10;100834.00;;;;2086806;28;20247;-55
2022/09/05 04:09:15;;;;;;;2.47;2.28;;;;;24.60;100835.00;;;;2088687;28;20240;-55
2022/09/05 04:10:36;;;;;;;2.63;2.40;;;;;24.60;100837.00;;;;2088076;28;20216;-55
2022/09/05 04:11:43;;;;;;;2.40;2.20;;;;;24.50;100836.00;;;;2089692;28;20332;-53
2022/09/05 04:13:00;;;;;;;2.45;2.25;;;;;24.60;100856.00;;;;2088225;28;20255;-55
2022/09/05 04:14:09;;;;;;;2.50;2.30;;;;;24.60;100837.00;;;;2081624;28;20248;-53
2022/09/05 04:15:34;;;;;;;2.60;2.40;;;;;24.60;100832.00;;;;2079938;28;20674;-56
2022/09/05 04:16:58;;;;;;;2.47;2.30;;;;;24.60;100838.00;;;;2087031;28;20304;-53
2022/09/05 04:18:01;;;;;;;2.53;2.33;;;;;24.60;100815.00;;;;2082664;28;20200;-54
2022/09/05 04:19:23;;;;;;;2.20;2.10;;;;;24.60;100831.00;;;;2080554;28;20279;-53
2022/09/05 04:20:37;;;;;;;2.65;2.45;;;;;24.50;100844.00;;;;2087657;28;20220;-55
2022/09/05 04:21:43;;;;;;;2.10;2.00;;;;;24.50;100849.00;;;;2089117;28;20216;-54
2022/09/05 04:22:58;;;;;;;2.20;2.00;;;;;24.60;100845.00;;;;2087942;28;20224;-54
2022/09/05 04:24:04;;;;;;;2.88;2.55;;;;;24.60;100848.00;;;;2095399;28;20265;-55
2022/09/05 04:25:17;;;;;;;2.40;2.20;;;;;24.60;100845.00;;;;2092393;28;20573;-55
2022/09/05 04:26:26;;;;;;;2.67;2.47;;;;;24.60;100844.00;;;;2093141;28;20220;-55
2022/09/05 04:28:11;;;;;;;2.45;2.25;;;;;24.60;100847.00;;;;2082826;28;20220;-55
2022/09/05 04:29:26;;;;;;;2.95;2.45;;;;;24.60;100848.00;;;;2075498;28;20221;-55
2022/09/05 04:30:30;;;;;;;2.80;2.55;;;;;24.60;100852.00;;;;2095891;28;20212;-55
2022/09/05 04:31:33;;;;;;;3.42;2.35;;;;;24.60;100845.00;;;;2095209;28;20212;-55
2022/09/05 04:32:45;;;;;;;2.58;2.15;;;;;24.60;100855.00;;;;2093613;28;20303;-54
2022/09/05 04:34:07;;;;;;;2.60;2.40;;;;;24.50;100853.00;;;;2095384;28;20317;-55
2022/09/05 04:35:29;;;;;;;2.60;2.40;;;;;24.60;100851.00;;;;2095367;28;20236;-56
2022/09/05 04:36:33;;;;;;;2.20;2.00;;;;;24.60;100807.00;;;;2095674;28;20599;-55
2022/09/05 04:38:02;;;;;;;2.42;2.22;;;;;24.60;100849.00;;;;2086425;28;20228;-55
2022/09/05 04:39:06;;;;;;;2.00;1.90;;;;;24.50;100849.00;;;;2090958;28;20211;-55
2022/09/05 04:40:28;;;;;;;2.65;2.45;;;;;24.50;100857.00;;;;2095690;28;20208;-55
2022/09/05 04:41:28;;;;;;;2.90;2.65;;;;;24.50;100856.00;;;;2096017;28;20730;-55
2022/09/05 04:42:29;;;;;;;2.33;2.13;;;;;24.50;100848.00;;;;2086991;28;20220;-54
2022/09/05 04:43:33;;;;;;;2.50;2.30;;;;;24.50;100856.00;;;;2095459;28;20212;-54
2022/09/05 04:44:39;;;;;;;2.75;2.00;;;;;24.50;100848.00;;;;2095396;28;20212;-54
2022/09/05 04:45:43;;;;;;;2.40;2.20;;;;;24.50;100844.00;;;;2088252;28;20224;-55
2022/09/05 04:46:48;;;;;;;2.70;2.50;;;;;24.50;100849.00;;;;2083312;28;20245;-55
2022/09/05 04:47:51;;;;;;;2.50;2.30;;;;;24.50;100849.00;;;;2078353;28;20295;-55
2022/09/05 04:49:29;;;;;;;2.85;2.65;;;;;24.50;100828.00;;;;2078883;28;20454;-56
2022/09/05 04:50:29;;;;;;;2.53;2.33;;;;;24.50;100850.00;;;;2089256;28;20746;-56
2022/09/05 04:51:46;;;;;;;3.07;2.87;;;;;24.50;100852.00;;;;2089315;28;20213;-55
2022/09/05 04:53:24;;;;;;;2.63;2.42;;;;;24.50;100856.00;;;;2093361;28;20312;-56
2022/09/05 04:54:28;;;;;;;2.50;2.30;;;;;24.50;100889.00;;;;2086313;28;20727;-56
2022/09/05 04:55:37;;;;;;;2.50;2.30;;;;;24.50;100866.00;;;;2078338;28;20210;-55
2022/09/05 04:56:41;;;;;;;2.80;2.30;;;;;24.50;100860.00;;;;2079322;28;20324;-56
2022/09/05 04:57:52;;;;;;;2.40;2.20;;;;;24.50;100865.00;;;;2085603;28;20566;-56
2022/09/05 04:58:57;;;;;;;2.30;2.17;;;;;24.50;100857.00;;;;2078098;28;20301;-56
2022/09/05 05:00:19;;;;;;;3.85;2.35;;;;;24.50;100843.00;;;;2079629;28;20253;-55
2022/09/05 05:01:30;;;;;;;2.33;2.13;;;;;24.50;100833.00;;;;2091644;28;20299;-55
2022/09/05 05:02:39;;;;;;;2.60;2.40;;;;;24.50;100854.00;;;;2078771;28;20244;-55
2022/09/05 05:03:39;;;;;;;2.70;2.50;;;;;24.50;100860.00;;;;2095865;28;20227;-55
2022/09/05 05:04:40;;;;;;;2.57;2.37;;;;;24.50;100861.00;;;;2094682;28;20268;-55
2022/09/05 05:05:46;;;;;;;2.13;2.03;;;;;24.50;100865.00;;;;2094547;28;20254;-55
2022/09/05 05:06:58;;;;;;;2.92;2.72;;;;;24.50;100839.00;;;;2094575;28;20317;-54
2022/09/05 05:08:03;;;;;;;2.50;2.30;;;;;24.50;100834.00;;;;2094144;28;20216;-55
2022/09/05 05:09:11;;;;;;;2.58;2.38;;;;;24.50;100873.00;;;;2088862;28;20254;-56
2022/09/05 05:10:18;;;;;;;2.47;2.33;;;;;24.50;100865.00;;;;2086473;28;20213;-55
2022/09/05 05:11:20;;;;;;;2.70;2.50;;;;;24.50;100863.00;;;;2080114;28;20308;-55
2022/09/05 05:12:26;;;;;;;3.38;2.35;;;;;24.50;100863.00;;;;2079604;28;20700;-55
2022/09/05 05:13:41;;;;;;;2.58;2.38;;;;;24.50;100868.00;;;;2082154;28;20434;-56
2022/09/05 05:14:50;;;;;;;2.80;2.60;;;;;24.50;100874.00;;;;2095162;28;20226;-55
2022/09/05 05:15:56;;;;;;;2.70;2.50;;;;;24.50;100871.00;;;;2087728;28;20220;-55
2022/09/05 05:17:05;;;;;;;2.10;1.98;;;;;24.50;100879.00;;;;2078942;28;20691;-55
2022/09/05 05:18:26;;;;;;;2.67;2.47;;;;;24.50;100872.00;;;;2080291;28;20624;-55
2022/09/05 05:19:30;;;;;;;2.70;2.50;;;;;24.50;100871.00;;;;2089037;28;20724;-55
2022/09/05 05:20:35;;;;;;;2.15;2.05;;;;;24.50;100876.00;;;;2088569;28;20259;-55
2022/09/05 05:21:35;;;;;;;2.70;2.35;;;;;24.50;100874.00;;;;2087334;28;20212;-55
2022/09/05 05:22:36;;;;;;;2.37;2.27;;;;;24.50;100929.00;;;;2095091;28;20226;-56
2022/09/05 05:23:39;;;;;;;2.60;2.40;;;;;24.50;100886.00;;;;2094812;28;20208;-55
2022/09/05 05:24:47;;;;;;;2.75;2.55;;;;;24.50;100846.00;;;;2096230;28;20632;-56
2022/09/05 05:25:49;;;;;;;2.70;2.50;;;;;24.50;100877.00;;;;2096819;28;20224;-56
2022/09/05 05:27:09;;;;;;;2.03;1.93;;;;;24.50;100836.00;;;;2096772;28;20232;-55
2022/09/05 05:28:11;;;;;;;2.42;2.22;;;;;24.50;100891.00;;;;2094829;28;20462;-56
2022/09/05 05:29:14;;;;;;;2.40;2.20;;;;;24.50;100881.00;;;;2087913;28;20288;-56
2022/09/05 05:30:23;;;;;;;2.70;2.50;;;;;24.50;100887.00;;;;2094650;28;20803;-56
2022/09/05 05:31:31;;;;;;;2.58;2.38;;;;;24.50;100918.00;;;;2095096;28;20235;-55
2022/09/05 05:32:36;;;;;;;2.65;2.40;;;;;24.50;100885.00;;;;2087439;28;20266;-56
2022/09/05 05:33:36;;;;;;;2.47;2.28;;;;;24.50;100904.00;;;;2087219;28;20295;-55
2022/09/05 05:34:49;;;;;;;3.00;2.47;;;;;24.50;100884.00;;;;2094855;28;20212;-56
2022/09/05 05:35:49;;;;;;;2.63;2.42;;;;;24.50;100896.00;;;;2095526;28;20891;-55
2022/09/05 05:36:56;;;;;;;2.50;2.30;;;;;24.50;100878.00;;;;2095549;28;20210;-55
2022/09/05 05:38:14;;;;;;;2.90;2.70;;;;;24.50;100891.00;;;;2094086;28;20219;-56
2022/09/05 05:39:22;;;;;;;3.20;2.92;;;;;24.50;100870.00;;;;2094757;28;20242;-55
2022/09/05 05:40:25;;;;;;;3.05;2.30;;;;;24.50;100884.00;;;;2086142;28;20717;-55
2022/09/05 05:41:41;;;;;;;2.30;2.20;;;;;24.50;100895.00;;;;2079031;28;20226;-55
2022/09/05 05:42:43;;;;;;;2.40;2.20;;;;;24.50;100855.00;;;;2082693;28;20479;-55
2022/09/05 05:43:43;;;;;;;2.50;2.30;;;;;24.50;100887.00;;;;2078547;28;20255;-55
2022/09/05 05:44:47;;;;;;;3.00;2.70;;;;;24.50;100878.00;;;;2086217;28;20220;-56
2022/09/05 05:45:55;;;;;;;2.58;2.38;;;;;24.50;100945.00;;;;2086963;28;20625;-55
2022/09/05 05:47:15;;;;;;;2.70;2.50;;;;;24.50;100885.00;;;;2079519;28;20229;-55
2022/09/05 05:48:18;;;;;;;3.05;2.45;;;;;24.50;100892.00;;;;2084758;28;20488;-55
2022/09/05 05:49:31;;;;;;;3.03;2.72;;;;;24.50;100884.00;;;;2094598;28;20219;-56
2022/09/05 05:50:51;;;;;;;2.40;2.20;;;;;24.50;100882.00;;;;2064329;28;20760;-55
2022/09/05 05:52:19;;;;;;;2.55;2.35;;;;;24.50;100887.00;;;;2089557;28;20248;-55
2022/09/05 05:53:47;;;;;;;2.50;2.30;;;;;24.50;100889.00;;;;2094921;28;20220;-56
2022/09/05 05:55:20;;;;;;;4.80;2.50;;;;;23.90;100891.00;;;;2094544;28;20231;-57
2022/09/05 05:56:51;;;;;;;3.10;2.80;;;;;23.10;100892.00;;;;2093671;28;20219;-56
2022/09/05 05:58:28;;;;;;;3.25;2.95;;;;;22.80;100892.00;;;;2093467;28;20212;-57
2022/09/05 05:59:53;;;;;;;5.07;3.22;;;;;22.70;100901.00;;;;2088881;28;20228;-56
2022/09/05 06:00:53;;;;;;;3.63;3.03;;;;;22.80;100896.00;;;;2093190;28;20204;-57
2022/09/05 06:01:57;;;;;;;2.90;2.70;;;;;22.60;100900.00;;;;2087586;28;20236;-56
2022/09/05 06:03:19;;;;;;;2.80;2.60;;;;;22.70;100892.00;;;;2086411;28;20618;-56
2022/09/05 06:04:28;;;;;;;3.28;2.97;;;;;22.70;100894.00;;;;2090514;28;20216;-55
2022/09/05 06:05:43;;;;;;;3.20;2.88;;;;;22.60;100896.00;;;;2094969;28;20306;-56
2022/09/05 06:07:11;;;;;;;2.95;2.70;;;;;22.60;100899.00;;;;2091418;28;20220;-56
2022/09/05 06:08:37;;;;;;;3.42;3.13;;;;;22.90;100891.00;;;;2093518;28;20204;-56
2022/09/05 06:10:18;;;;;;;3.60;3.15;;;;;23.20;100897.00;;;;2093732;28;20220;-56